createdAt,value
2023-04-23T00:01:10.734Z,15.33
2023-04-23T00:03:41.274Z,14.97
2023-04-23T00:06:12.188Z,15.73
2023-04-23T00:08:40.960Z,16.17
2023-04-23T00:11:10.183Z,16.73
2023-04-23T00:13:38.804Z,16.80
2023-04-23T00:16:07.732Z,16.20
2023-04-23T00:18:35.907Z,15.27
2023-04-23T00:21:03.944Z,14.63
2023-04-23T00:23:33.318Z,14.33
2023-04-23T00:26:01.412Z,14.30
2023-04-23T00:28:29.406Z,13.43
2023-04-23T00:30:57.448Z,13.97
2023-04-23T00:33:25.515Z,13.60
2023-04-23T00:35:53.624Z,14.80
2023-04-23T00:38:22.028Z,14.67
2023-04-23T00:40:51.437Z,14.23
2023-04-23T00:43:19.450Z,14.90
2023-04-23T00:45:48.225Z,14.77
2023-04-23T00:48:17.181Z,14.53
2023-04-23T00:50:45.164Z,15.37
2023-04-23T00:53:13.455Z,15.10
2023-04-23T00:55:42.376Z,15.80
2023-04-23T00:58:11.754Z,14.27
2023-04-23T01:00:48.604Z,14.93
2023-04-23T01:03:18.511Z,15.67
2023-04-23T01:05:47.005Z,16.33
2023-04-23T01:08:19.183Z,15.53
2023-04-23T01:10:48.916Z,16.17
2023-04-23T01:13:18.211Z,16.10
2023-04-23T01:15:46.555Z,16.30
2023-04-23T01:18:14.896Z,15.03
2023-04-23T01:20:43.813Z,16.10
2023-04-23T01:23:13.222Z,15.30
2023-04-23T01:25:41.504Z,16.37
2023-04-23T01:28:09.672Z,17.07
2023-04-23T01:30:38.655Z,16.87
2023-04-23T01:33:07.251Z,16.10
2023-04-23T01:35:36.884Z,16.63
2023-04-23T01:38:06.028Z,15.47
2023-04-23T01:40:35.455Z,16.10
2023-04-23T01:43:03.621Z,15.27
2023-04-23T01:45:32.190Z,15.87
2023-04-23T01:48:01.423Z,15.00
2023-04-23T01:50:30.062Z,14.60
2023-04-23T01:52:58.222Z,15.50
2023-04-23T01:55:26.355Z,15.23
2023-04-23T01:57:55.753Z,15.40
2023-04-23T02:00:23.834Z,14.70
2023-04-23T02:02:53.868Z,15.23
2023-04-23T02:05:22.863Z,15.87
2023-04-23T02:07:52.463Z,15.30
2023-04-23T02:10:20.649Z,15.87
2023-04-23T02:12:49.089Z,15.60
2023-04-23T02:15:19.997Z,15.83
2023-04-23T02:17:51.221Z,15.17
2023-04-23T02:20:20.243Z,15.43
2023-04-23T02:22:48.737Z,15.07
2023-04-23T02:25:18.125Z,15.57
2023-04-23T02:27:46.146Z,14.83
2023-04-23T02:30:14.544Z,15.30
2023-04-23T02:32:44.134Z,15.60
2023-04-23T02:35:12.764Z,15.60
2023-04-23T02:37:40.822Z,15.80
2023-04-23T02:40:10.284Z,15.57
2023-04-23T02:42:38.225Z,14.80
2023-04-23T02:45:07.352Z,16.53
2023-04-23T02:47:35.634Z,16.63
2023-04-23T02:50:06.210Z,17.17
2023-04-23T02:52:34.273Z,16.40
2023-04-23T02:55:03.814Z,17.00
2023-04-23T02:57:31.842Z,17.60
2023-04-23T02:59:59.852Z,18.00
2023-04-23T03:02:27.929Z,18.40
2023-04-23T03:04:56.130Z,17.73
2023-04-23T03:07:25.516Z,18.23
2023-04-23T03:09:53.557Z,18.80
2023-04-23T03:12:21.570Z,18.47
2023-04-23T03:14:49.529Z,18.60
2023-04-23T03:17:17.918Z,18.23
2023-04-23T03:19:45.851Z,18.60
2023-04-23T03:22:13.826Z,19.63
2023-04-23T03:24:43.398Z,19.60
2023-04-23T03:27:11.691Z,19.90
2023-04-23T03:29:39.737Z,20.03
2023-04-23T03:32:07.728Z,19.97
2023-04-23T03:34:35.678Z,20.37
2023-04-23T03:37:03.653Z,20.83
2023-04-23T03:39:31.640Z,20.17
2023-04-23T03:42:02.004Z,20.17
2023-04-23T03:44:29.985Z,20.63
2023-04-23T03:46:57.980Z,21.23
2023-04-23T03:49:27.802Z,20.43
2023-04-23T03:51:55.826Z,20.50
2023-04-23T03:54:25.802Z,21.40
2023-04-23T03:56:53.758Z,20.57
2023-04-23T03:59:23.825Z,21.43
2023-04-23T04:01:51.856Z,20.13
2023-04-23T04:04:20.085Z,21.20
2023-04-23T04:06:48.300Z,22.60
2023-04-23T04:09:17.079Z,21.77
2023-04-23T04:11:45.345Z,20.67
2023-04-23T04:14:13.724Z,21.73
2023-04-23T04:16:43.057Z,21.43
2023-04-23T04:19:11.047Z,20.17
2023-04-23T04:21:39.180Z,21.17
2023-04-23T04:24:07.741Z,21.63
2023-04-23T04:26:35.714Z,21.43
2023-04-23T04:29:03.886Z,22.20
2023-04-23T04:31:32.408Z,21.70
2023-04-23T04:34:01.907Z,21.90
2023-04-23T04:36:29.935Z,22.23
2023-04-23T04:38:58.750Z,22.90
2023-04-23T04:41:27.719Z,25.13
2023-04-23T04:43:55.793Z,24.83
2023-04-23T04:46:23.965Z,27.07
2023-04-23T04:48:51.973Z,25.67
2023-04-23T04:51:21.744Z,27.10
2023-04-23T04:53:49.717Z,25.57
2023-04-23T04:56:17.811Z,25.67
2023-04-23T04:58:45.764Z,25.77
2023-04-23T05:01:13.785Z,27.80
2023-04-23T05:03:42.002Z,25.00
2023-04-23T05:06:10.100Z,25.73
2023-04-23T05:08:39.785Z,25.87
2023-04-23T05:11:07.732Z,25.80
2023-04-23T05:13:35.922Z,25.30
2023-04-23T05:16:03.881Z,24.17
2023-04-23T05:18:31.938Z,25.23
2023-04-23T05:21:00.068Z,23.90
2023-04-23T05:23:28.096Z,23.10
2023-04-23T05:25:58.709Z,23.47
2023-04-23T05:28:26.923Z,23.70
2023-04-23T05:30:54.959Z,24.57
2023-04-23T05:33:22.925Z,24.43
2023-04-23T05:35:50.940Z,24.17
2023-04-23T05:38:18.928Z,23.43
2023-04-23T05:40:46.998Z,24.03
2023-04-23T05:43:16.365Z,23.17
2023-04-23T05:45:44.356Z,23.40
2023-04-23T05:48:12.390Z,22.27
2023-04-23T05:50:40.784Z,20.37
2023-04-23T05:53:08.738Z,21.50
2023-04-23T05:55:36.954Z,20.20
2023-04-23T05:58:05.191Z,20.27
2023-04-23T06:00:35.550Z,18.00
2023-04-23T06:03:03.729Z,18.70
2023-04-23T06:05:32.054Z,18.43
2023-04-23T06:08:00.095Z,16.90
2023-04-23T06:10:28.170Z,19.00
2023-04-23T06:12:56.595Z,16.30
2023-04-23T06:15:27.203Z,15.80
2023-04-23T06:17:56.736Z,16.20
2023-04-23T06:20:24.709Z,15.20
2023-04-23T06:22:52.693Z,14.67
2023-04-23T06:25:20.797Z,14.40
2023-04-23T06:27:48.780Z,14.67
2023-04-23T06:30:16.867Z,14.27
2023-04-23T06:32:44.874Z,13.07
2023-04-23T06:35:14.246Z,12.60
2023-04-23T06:37:42.214Z,12.60
2023-04-23T06:40:11.356Z,12.00
2023-04-23T06:42:39.386Z,10.70
2023-04-23T06:45:08.445Z,10.53
2023-04-23T06:47:36.498Z,9.97
2023-04-23T06:50:05.779Z,8.48
2023-04-23T06:52:35.228Z,8.70
2023-04-23T06:55:03.286Z,8.55
2023-04-23T06:57:31.321Z,8.95
2023-04-23T06:59:59.266Z,9.10
2023-04-23T07:02:27.393Z,8.90
2023-04-23T07:04:55.434Z,8.07
2023-04-23T07:07:23.384Z,9.05
2023-04-23T07:09:52.713Z,8.70
2023-04-23T07:12:20.718Z,8.95
2023-04-23T07:14:48.648Z,8.48
2023-04-23T07:17:16.608Z,7.95
2023-04-23T07:19:44.636Z,8.30
2023-04-23T07:22:12.680Z,8.18
2023-04-23T07:24:41.634Z,8.90
2023-04-23T07:27:11.362Z,8.73
2023-04-23T07:29:39.453Z,8.82
2023-04-23T07:32:07.533Z,8.60
2023-04-23T07:34:38.055Z,8.13
2023-04-23T07:37:06.248Z,9.23
2023-04-23T07:39:34.390Z,8.65
2023-04-23T07:42:03.099Z,8.32
2023-04-23T07:44:32.518Z,8.50
2023-04-23T07:47:00.707Z,9.02
2023-04-23T07:49:28.706Z,8.35
2023-04-23T07:51:56.695Z,9.00
2023-04-23T07:54:25.774Z,9.10
2023-04-23T07:56:53.876Z,9.00
2023-04-23T07:59:21.879Z,8.70
2023-04-23T08:01:51.256Z,8.38
2023-04-23T08:04:19.667Z,8.13
2023-04-23T08:06:47.874Z,8.88
2023-04-23T08:09:15.867Z,8.93
2023-04-23T08:11:43.912Z,10.23
2023-04-23T08:14:12.288Z,9.35
2023-04-23T08:16:40.282Z,9.35
2023-04-23T08:19:09.615Z,9.18
2023-04-23T08:21:37.587Z,9.43
2023-04-23T08:24:07.816Z,9.02
2023-04-23T08:26:36.055Z,8.85
2023-04-23T08:29:05.252Z,8.95
2023-04-23T08:31:33.856Z,9.07
2023-04-23T08:34:01.890Z,8.57
2023-04-23T08:36:32.176Z,7.93
2023-04-23T08:39:00.763Z,7.50
2023-04-23T08:41:35.799Z,7.78
2023-04-23T08:44:13.877Z,7.55
2023-04-23T08:46:44.728Z,6.30
2023-04-23T08:49:16.483Z,6.28
2023-04-23T08:51:50.519Z,5.90
2023-04-23T08:54:23.647Z,6.65
2023-04-23T08:56:52.567Z,6.20
2023-04-23T08:59:23.075Z,5.63
2023-04-23T09:01:51.255Z,5.28
2023-04-23T09:04:20.594Z,5.07
2023-04-23T09:06:50.365Z,4.82
2023-04-23T09:09:18.632Z,5.05
2023-04-23T09:11:47.020Z,5.18
2023-04-23T09:14:15.330Z,4.97
2023-04-23T09:16:44.429Z,4.80
2023-04-23T09:19:12.806Z,4.53
2023-04-23T09:21:41.865Z,4.85
2023-04-23T09:24:12.781Z,4.55
2023-04-23T09:26:46.821Z,4.75
2023-04-23T09:29:19.019Z,4.47
2023-04-23T09:31:49.528Z,4.75
2023-04-23T09:34:18.212Z,4.57
2023-04-23T09:36:47.196Z,5.82
2023-04-23T09:39:18.204Z,5.82
2023-04-23T09:41:46.867Z,5.72
2023-04-23T09:44:19.426Z,5.28
2023-04-23T09:46:47.423Z,4.97
2023-04-23T09:49:16.335Z,5.07
2023-04-23T09:51:46.672Z,4.30
2023-04-23T09:54:18.511Z,4.18
2023-04-23T09:56:50.572Z,4.90
2023-04-23T09:59:35.483Z,4.90
2023-04-23T10:02:09.693Z,4.60
2023-04-23T10:04:39.234Z,4.75
2023-04-23T10:09:45.919Z,4.60
2023-04-23T10:14:49.318Z,5.05
2023-04-23T10:17:18.761Z,4.88
2023-04-23T10:19:47.225Z,4.78
2023-04-23T10:22:20.573Z,4.50
2023-04-23T10:24:56.141Z,4.43
2023-04-23T10:27:40.342Z,4.80
2023-04-23T10:30:16.568Z,4.70
2023-04-23T10:32:46.106Z,4.82
2023-04-23T10:35:14.130Z,5.20
2023-04-23T10:37:42.902Z,5.20
2023-04-23T10:40:15.045Z,5.22
2023-04-23T10:42:45.081Z,5.30
2023-04-23T10:45:24.017Z,5.10
2023-04-23T10:47:54.686Z,5.20
2023-04-23T10:50:24.771Z,4.85
2023-04-23T10:52:54.471Z,4.90
2023-04-23T10:55:25.074Z,5.30
2023-04-23T10:58:04.314Z,5.40
2023-04-23T11:00:45.906Z,5.30
2023-04-23T11:03:42.623Z,5.03
2023-04-23T11:06:16.343Z,5.82
2023-04-23T11:08:54.822Z,5.32
2023-04-23T11:11:40.778Z,4.80
2023-04-23T11:14:14.240Z,5.30
2023-04-23T11:16:42.601Z,5.47
2023-04-23T11:19:12.672Z,5.28
2023-04-23T11:22:01.478Z,5.57
2023-04-23T11:24:31.467Z,5.80
2023-04-23T11:27:02.679Z,5.20
2023-04-23T11:29:30.691Z,5.20
2023-04-23T11:32:03.177Z,5.60
2023-04-23T11:34:33.252Z,5.90
2023-04-23T11:37:02.233Z,5.20
2023-04-23T11:39:30.216Z,5.75
2023-04-23T11:42:03.142Z,5.93
2023-04-23T11:44:31.730Z,5.60
2023-04-23T11:47:02.611Z,5.88
2023-04-23T11:49:30.781Z,5.38
2023-04-23T11:52:00.712Z,5.95
2023-04-23T11:54:30.092Z,5.70
2023-04-23T11:56:59.828Z,6.15
2023-04-23T11:59:29.630Z,5.72
2023-04-23T12:01:59.289Z,5.63
2023-04-23T12:04:28.775Z,5.38
2023-04-23T12:06:58.415Z,5.82
2023-04-23T12:09:28.840Z,5.70
2023-04-23T12:11:58.668Z,5.53
2023-04-23T12:14:33.205Z,5.95
2023-04-23T12:17:11.145Z,5.60
2023-04-23T12:19:40.659Z,5.60
2023-04-23T12:22:08.998Z,5.95
2023-04-23T12:24:48.568Z,5.63
2023-04-23T12:27:20.456Z,5.40
2023-04-23T12:29:50.911Z,5.60
2023-04-23T12:32:22.888Z,5.60
2023-04-23T12:34:54.664Z,5.60
2023-04-23T12:37:26.366Z,5.85
2023-04-23T12:39:56.500Z,5.65
2023-04-23T12:42:24.683Z,5.60
2023-04-23T12:44:55.821Z,5.40
2023-04-23T12:47:24.285Z,5.35
2023-04-23T12:49:53.784Z,5.43
2023-04-23T12:52:22.341Z,5.53
2023-04-23T12:54:56.205Z,5.47
2023-04-23T12:57:24.624Z,5.80
2023-04-23T12:59:54.973Z,5.00
2023-04-23T13:02:23.998Z,4.97
2023-04-23T13:04:52.036Z,5.35
2023-04-23T13:07:20.015Z,5.60
2023-04-23T13:09:48.004Z,5.75
2023-04-23T13:12:16.032Z,5.25
2023-04-23T13:14:43.985Z,5.22
2023-04-23T13:17:13.625Z,5.28
2023-04-23T13:19:42.072Z,5.25
2023-04-23T13:22:10.323Z,5.43
2023-04-23T13:24:38.304Z,5.10
2023-04-23T13:27:06.295Z,5.70
2023-04-23T13:29:34.324Z,5.47
2023-04-23T13:32:02.387Z,4.97
2023-04-23T13:34:31.789Z,5.18
2023-04-23T13:37:00.331Z,5.32
2023-04-23T13:39:28.341Z,5.32
2023-04-23T13:42:08.908Z,5.68
2023-04-23T13:44:37.744Z,5.13
2023-04-23T13:47:05.799Z,5.05
2023-04-23T13:49:35.173Z,4.97
2023-04-23T13:52:06.788Z,5.10
2023-04-23T13:54:35.679Z,5.38
2023-04-23T13:57:03.936Z,5.60
2023-04-23T13:59:31.880Z,5.13
2023-04-23T14:01:59.889Z,5.50
2023-04-23T14:04:28.024Z,5.15
2023-04-23T14:06:57.405Z,5.80
2023-04-23T14:09:25.414Z,4.97
2023-04-23T14:11:53.447Z,4.95
2023-04-23T14:14:21.401Z,5.40
2023-04-23T14:16:49.429Z,5.15
2023-04-23T14:19:18.191Z,4.90
2023-04-23T14:21:46.727Z,5.43
2023-04-23T14:24:23.990Z,5.10
2023-04-23T14:26:51.946Z,5.10
2023-04-23T14:29:25.308Z,5.30
2023-04-23T14:31:53.559Z,5.20
2023-04-23T14:34:21.576Z,5.07
2023-04-23T14:36:49.956Z,5.28
2023-04-23T14:39:19.383Z,5.57
2023-04-23T14:41:47.402Z,5.82
2023-04-23T14:44:15.403Z,5.90
2023-04-23T14:46:43.384Z,5.28
2023-04-23T14:49:11.635Z,5.55
2023-04-23T14:51:39.694Z,6.13
2023-04-23T14:54:07.703Z,5.28
2023-04-23T14:56:37.559Z,5.65
2023-04-23T14:59:05.771Z,5.30
2023-04-23T15:01:33.780Z,5.68
2023-04-23T15:04:01.949Z,4.88
2023-04-23T15:06:30.061Z,5.00
2023-04-23T15:08:58.111Z,4.90
2023-04-23T15:11:26.171Z,5.45
2023-04-23T15:14:03.719Z,5.55
2023-04-23T15:19:06.925Z,5.93
2023-04-23T15:21:35.247Z,5.75
2023-04-23T15:24:03.284Z,5.60
2023-04-23T15:26:32.731Z,5.93
2023-04-23T15:29:03.117Z,5.95
2023-04-23T15:31:31.182Z,5.82
2023-04-23T15:33:59.209Z,6.20
2023-04-23T15:36:27.292Z,5.88
2023-04-23T15:38:55.366Z,6.00
2023-04-23T15:41:23.439Z,6.10
2023-04-23T15:43:53.737Z,5.88
2023-04-23T15:46:23.112Z,6.13
2023-04-23T15:48:51.154Z,6.30
2023-04-23T15:51:19.172Z,6.00
2023-04-23T15:53:47.105Z,5.85
2023-04-23T15:56:15.077Z,6.40
2023-04-23T15:58:43.016Z,6.05
2023-04-23T16:01:11.403Z,6.07
2023-04-23T16:03:42.556Z,5.97
2023-04-23T16:06:16.015Z,5.60
2023-04-23T16:08:44.118Z,5.85
2023-04-23T16:11:13.318Z,5.53
2023-04-23T16:13:41.293Z,5.55
2023-04-23T16:16:09.251Z,5.85
2023-04-23T16:18:37.273Z,5.68
2023-04-23T16:21:07.228Z,5.63
2023-04-23T16:23:35.195Z,5.90
2023-04-23T16:26:08.609Z,5.70
2023-04-23T16:28:37.336Z,5.78
2023-04-23T16:31:05.390Z,5.10
2023-04-23T16:33:33.739Z,5.47
2023-04-23T16:36:01.694Z,5.40
2023-04-23T16:38:31.053Z,5.40
2023-04-23T16:40:59.118Z,5.30
2023-04-23T16:43:27.574Z,5.28
2023-04-23T16:45:55.585Z,5.53
2023-04-23T16:48:23.619Z,6.10
2023-04-23T16:50:51.574Z,6.47
2023-04-23T16:53:19.526Z,5.93
2023-04-23T16:55:49.253Z,5.90
2023-04-23T16:58:18.674Z,6.03
2023-04-23T17:00:47.117Z,6.00
2023-04-23T17:03:15.888Z,6.00
2023-04-23T17:05:44.909Z,5.75
2023-04-23T17:08:12.940Z,5.50
2023-04-23T17:10:41.056Z,6.07
2023-04-23T17:13:10.476Z,5.90
2023-04-23T17:15:38.440Z,6.03
2023-04-23T17:18:06.474Z,5.80
2023-04-23T17:20:35.377Z,6.30
2023-04-23T17:23:03.618Z,5.88
2023-04-23T17:25:31.612Z,6.10
2023-04-23T17:27:59.564Z,6.70
2023-04-23T17:30:28.910Z,6.68
2023-04-23T17:32:56.978Z,5.95
2023-04-23T17:35:24.966Z,6.13
2023-04-23T17:37:53.404Z,5.88
2023-04-23T17:40:21.788Z,6.03
2023-04-23T17:42:49.871Z,6.30
2023-04-23T17:45:18.535Z,6.00
2023-04-23T17:47:47.993Z,7.28
2023-04-23T17:50:16.192Z,8.35
2023-04-23T17:52:45.134Z,9.68
2023-04-23T17:55:13.378Z,7.43
2023-04-23T17:57:41.374Z,7.13
2023-04-23T18:00:10.789Z,6.78
2023-04-23T18:02:41.570Z,6.15
2023-04-23T18:05:12.332Z,6.50
2023-04-23T18:07:41.519Z,6.22
2023-04-23T18:10:10.698Z,6.47
2023-04-23T18:12:39.457Z,5.93
2023-04-23T18:15:11.074Z,6.53
2023-04-23T18:17:39.096Z,6.90
2023-04-23T18:20:08.880Z,9.85
2023-04-23T18:22:38.851Z,12.88
2023-04-23T18:25:09.954Z,13.50
2023-04-23T18:27:37.987Z,12.85
2023-04-23T18:30:08.233Z,12.00
2023-04-23T18:32:40.714Z,11.55
2023-04-23T18:35:10.065Z,12.40
2023-04-23T18:37:44.583Z,12.50
2023-04-23T18:40:13.026Z,12.63
2023-04-23T18:42:40.988Z,11.60
2023-04-23T18:45:10.755Z,11.88
2023-04-23T18:47:44.080Z,11.52
2023-04-23T18:50:31.922Z,11.25
2023-04-23T18:53:01.280Z,12.27
2023-04-23T18:55:29.262Z,12.98
2023-04-23T18:57:57.377Z,12.38
2023-04-23T19:00:25.467Z,12.43
2023-04-23T19:02:53.622Z,11.73
2023-04-23T19:05:21.698Z,12.70
2023-04-23T19:07:49.733Z,12.10
2023-04-23T19:10:19.152Z,12.23
2023-04-23T19:12:47.095Z,10.60
2023-04-23T19:15:15.725Z,8.65
2023-04-23T19:17:43.817Z,8.88
2023-04-23T19:20:15.019Z,8.65
2023-04-23T19:22:43.138Z,8.48
2023-04-23T19:25:11.485Z,8.68
2023-04-23T19:27:40.831Z,10.85
2023-04-23T19:30:10.408Z,13.45
2023-04-23T19:32:38.415Z,14.35
2023-04-23T19:35:07.097Z,12.88
2023-04-23T19:37:36.106Z,12.80
2023-04-23T19:40:04.945Z,12.25
2023-04-23T19:42:32.939Z,9.65
2023-04-23T19:45:02.264Z,9.52
2023-04-23T19:47:32.593Z,10.32
2023-04-23T19:50:00.623Z,10.27
2023-04-23T19:52:28.792Z,11.02
2023-04-23T19:54:56.770Z,11.40
2023-04-23T19:57:24.737Z,11.00
2023-04-23T19:59:52.817Z,10.98
2023-04-23T20:02:22.179Z,10.13
2023-04-23T20:04:50.147Z,9.88
2023-04-23T20:07:18.153Z,9.50
2023-04-23T20:09:46.144Z,10.25
2023-04-23T20:12:14.588Z,9.98
2023-04-23T20:14:42.939Z,11.15
2023-04-23T20:17:11.484Z,11.57
2023-04-23T20:19:41.114Z,11.18
2023-04-23T20:22:09.320Z,17.98
2023-04-23T20:24:40.277Z,14.93
2023-04-23T20:27:08.331Z,14.52
2023-04-23T20:29:36.334Z,14.38
2023-04-23T20:32:04.410Z,14.90
2023-04-23T20:34:32.429Z,14.88
2023-04-23T20:37:02.280Z,14.73
2023-04-23T20:39:30.706Z,12.07
2023-04-23T20:42:00.928Z,12.20
2023-04-23T20:44:29.153Z,11.50
2023-04-23T20:46:58.022Z,11.45
2023-04-23T20:49:26.295Z,10.45
2023-04-23T20:51:55.014Z,10.93
2023-04-23T20:54:24.368Z,10.52
2023-04-23T20:56:54.272Z,9.90
2023-04-23T20:59:22.740Z,9.68
2023-04-23T21:01:51.023Z,9.68
2023-04-23T21:04:19.377Z,9.85
2023-04-23T21:06:47.896Z,9.90
2023-04-23T21:09:16.317Z,10.45
2023-04-23T21:11:45.682Z,9.75
2023-04-23T21:14:13.709Z,10.75
2023-04-23T21:16:41.633Z,12.23
2023-04-23T21:19:09.612Z,12.32
2023-04-23T21:21:37.692Z,11.35
2023-04-23T21:24:06.385Z,11.15
2023-04-23T21:26:34.432Z,10.88
2023-04-23T21:29:03.788Z,10.93
2023-04-23T21:31:42.202Z,11.52
2023-04-23T21:34:10.351Z,11.35
2023-04-23T21:36:38.531Z,11.00
2023-04-23T21:39:06.665Z,11.40
2023-04-23T21:41:34.686Z,11.20
2023-04-23T21:44:04.027Z,12.20
2023-04-23T21:46:32.252Z,11.50
2023-04-23T21:49:00.529Z,11.13
2023-04-23T21:51:28.511Z,11.43
2023-04-23T21:53:56.628Z,10.93
2023-04-23T21:56:24.654Z,10.95
2023-04-23T21:58:52.650Z,11.57
2023-04-23T22:01:22.757Z,11.30
2023-04-23T22:03:51.296Z,11.15
2023-04-23T22:06:19.920Z,11.07
2023-04-23T22:08:47.891Z,10.95
2023-04-23T22:11:17.318Z,11.77
2023-04-23T22:13:45.275Z,11.30
2023-04-23T22:16:24.902Z,12.02
2023-04-23T22:18:57.823Z,12.20
2023-04-23T22:21:26.003Z,11.98
2023-04-23T22:23:54.030Z,11.52
2023-04-23T22:26:22.202Z,12.15
2023-04-23T22:28:50.220Z,12.10
2023-04-23T22:31:18.510Z,11.70
2023-04-23T22:33:46.576Z,12.02
2023-04-23T22:36:16.896Z,11.60
2023-04-23T22:38:44.875Z,11.68
2023-04-23T22:41:12.855Z,11.73
2023-04-23T22:43:40.817Z,11.87
2023-04-23T22:46:08.876Z,12.32
2023-04-23T22:48:43.979Z,11.57
2023-04-23T22:51:12.073Z,11.53
2023-04-23T22:53:41.465Z,12.10
2023-04-23T22:56:09.445Z,12.23
2023-04-23T22:58:38.130Z,12.17
2023-04-23T23:01:07.314Z,11.93
2023-04-23T23:03:35.405Z,12.37
2023-04-23T23:06:03.632Z,12.45
2023-04-23T23:08:31.641Z,12.20
2023-04-23T23:11:01.042Z,12.65
2023-04-23T23:13:29.096Z,12.05
2023-04-23T23:16:00.653Z,11.47
2023-04-23T23:18:28.715Z,13.05
2023-04-23T23:20:56.699Z,11.50
2023-04-23T23:23:24.705Z,11.65
2023-04-23T23:25:52.713Z,11.03
2023-04-23T23:28:22.010Z,11.75
2023-04-23T23:30:50.225Z,11.05
2023-04-23T23:33:18.226Z,11.52
2023-04-23T23:35:46.186Z,11.73
2023-04-23T23:38:14.182Z,11.50
2023-04-23T23:40:42.108Z,12.35
2023-04-23T23:43:10.126Z,11.80
2023-04-23T23:45:39.472Z,11.77
2023-04-23T23:48:07.650Z,11.57
2023-04-23T23:50:35.695Z,11.43
2023-04-23T23:53:03.793Z,11.63
2023-04-23T23:55:31.819Z,12.10
2023-04-23T23:57:59.784Z,12.02
